createdAt,value
2018-03-25T00:00:41.848Z,90.58
2018-03-25T00:01:48.075Z,90.23
2018-03-25T00:02:54.225Z,90.36
2018-03-25T00:04:00.371Z,90.04
2018-03-25T00:05:06.900Z,89.81
2018-03-25T00:06:14.281Z,90.13
2018-03-25T00:07:20.522Z,90.62
2018-03-25T00:08:26.692Z,90.69
2018-03-25T00:09:32.897Z,90.69
2018-03-25T00:10:39.073Z,90.84
2018-03-25T00:11:45.222Z,90.79
2018-03-25T00:12:51.417Z,90.41
2018-03-25T00:13:57.610Z,90.17
2018-03-25T00:15:03.415Z,90.02
2018-03-25T00:16:09.929Z,90.20
2018-03-25T00:17:16.177Z,90.16
2018-03-25T00:18:22.373Z,90.37
2018-03-25T00:19:28.542Z,90.31
2018-03-25T00:20:34.709Z,90.01
2018-03-25T00:21:40.853Z,89.49
2018-03-25T00:22:47.009Z,89.50
2018-03-25T00:23:53.188Z,89.41
2018-03-25T00:25:01.536Z,89.66
2018-03-25T00:26:11.434Z,90.12
2018-03-25T00:27:17.870Z,90.36
2018-03-25T00:28:24.038Z,90.15
2018-03-25T00:29:30.288Z,89.71
2018-03-25T00:30:36.464Z,89.47
2018-03-25T00:31:42.600Z,89.71
2018-03-25T00:32:48.728Z,89.97
2018-03-25T00:33:54.961Z,90.53
2018-03-25T00:35:00.842Z,90.32
2018-03-25T00:36:07.016Z,90.44
2018-03-25T00:37:13.850Z,90.58
2018-03-25T00:38:20.069Z,90.74
2018-03-25T00:39:26.231Z,90.41
2018-03-25T00:40:32.654Z,90.27
2018-03-25T00:41:38.769Z,90.23
2018-03-25T00:42:44.909Z,90.35
2018-03-25T00:43:51.085Z,90.22
2018-03-25T00:44:57.334Z,90.30
2018-03-25T00:46:07.342Z,90.57
2018-03-25T00:47:19.004Z,90.80
2018-03-25T00:48:25.770Z,90.71
2018-03-25T00:49:32.156Z,90.46
2018-03-25T00:50:38.094Z,90.51
2018-03-25T00:51:44.238Z,90.27
2018-03-25T00:52:51.254Z,90.52
2018-03-25T00:53:57.461Z,90.50
2018-03-25T00:55:03.926Z,90.41
2018-03-25T00:56:09.691Z,90.29
2018-03-25T00:57:15.839Z,90.38
2018-03-25T00:58:21.875Z,90.44
2018-03-25T00:59:28.665Z,90.04
2018-03-25T01:00:40.985Z,90.22
2018-03-25T01:01:47.735Z,90.87
2018-03-25T01:02:53.961Z,90.80
2018-03-25T01:04:00.213Z,91.00
2018-03-25T01:05:06.422Z,91.03
2018-03-25T01:06:11.936Z,90.90
2018-03-25T01:07:17.999Z,90.82
2018-03-25T01:08:24.239Z,90.98
2018-03-25T01:09:30.463Z,90.85
2018-03-25T01:10:37.098Z,90.65
2018-03-25T01:11:43.244Z,90.39
2018-03-25T01:12:49.297Z,90.68
2018-03-25T01:13:55.481Z,90.96
2018-03-25T01:15:06.506Z,91.18
2018-03-25T01:16:18.319Z,91.30
2018-03-25T01:17:24.726Z,91.28
2018-03-25T01:18:31.052Z,91.56
2018-03-25T01:19:37.220Z,91.47
2018-03-25T01:20:48.644Z,91.34
2018-03-25T01:21:54.785Z,91.17
2018-03-25T01:23:01.023Z,91.18
2018-03-25T01:24:06.863Z,90.67
2018-03-25T01:25:12.846Z,90.59
2018-03-25T01:26:18.813Z,90.58
2018-03-25T01:27:25.113Z,90.34
2018-03-25T01:28:31.272Z,90.23
2018-03-25T01:29:37.628Z,90.30
2018-03-25T01:30:52.076Z,90.63
2018-03-25T01:31:58.235Z,90.71
2018-03-25T01:33:04.093Z,91.17
2018-03-25T01:34:10.329Z,91.03
2018-03-25T01:35:16.452Z,90.77
2018-03-25T01:36:22.597Z,90.56
2018-03-25T01:37:28.965Z,90.30
2018-03-25T01:38:35.175Z,89.88
2018-03-25T01:39:46.645Z,89.63
2018-03-25T01:40:52.815Z,89.88
2018-03-25T01:41:59.074Z,90.10
2018-03-25T01:43:05.228Z,90.26
2018-03-25T01:44:11.436Z,90.41
2018-03-25T01:45:17.357Z,90.76
2018-03-25T01:46:24.292Z,90.64
2018-03-25T01:47:30.510Z,90.80
2018-03-25T01:48:36.693Z,90.97
2018-03-25T01:49:49.831Z,90.58
2018-03-25T01:50:56.879Z,90.57
2018-03-25T01:52:03.178Z,90.37
2018-03-25T01:53:09.421Z,90.73
2018-03-25T01:54:20.829Z,90.95
2018-03-25T01:55:27.062Z,91.13
2018-03-25T01:56:33.561Z,91.39
2018-03-25T01:57:39.773Z,91.41
2018-03-25T01:58:45.990Z,91.25
2018-03-25T01:59:52.189Z,91.46
2018-03-25T02:00:58.390Z,91.47
2018-03-25T02:02:04.208Z,91.34
2018-03-25T02:03:10.344Z,91.18
2018-03-25T02:04:16.660Z,91.32
2018-03-25T02:05:22.584Z,91.40
2018-03-25T02:06:29.716Z,91.22
2018-03-25T02:07:37.948Z,91.22
2018-03-25T02:08:43.745Z,91.21
2018-03-25T02:09:49.945Z,91.10
2018-03-25T02:11:01.309Z,91.04
2018-03-25T02:12:07.456Z,90.84
2018-03-25T02:13:13.372Z,91.00
2018-03-25T02:14:19.606Z,90.78
2018-03-25T02:15:27.303Z,91.01
2018-03-25T02:16:33.275Z,91.06
2018-03-25T02:17:39.624Z,91.30
2018-03-25T02:18:45.832Z,91.54
2018-03-25T02:19:51.993Z,91.62
2018-03-25T02:20:58.243Z,91.37
2018-03-25T02:22:04.675Z,91.23
2018-03-25T02:23:10.878Z,91.16
2018-03-25T02:24:17.037Z,90.64
2018-03-25T02:25:23.269Z,90.52
2018-03-25T02:26:29.399Z,90.11
2018-03-25T02:27:35.535Z,90.09
2018-03-25T02:28:42.656Z,90.30
2018-03-25T02:29:48.846Z,90.52
2018-03-25T02:30:55.010Z,90.97
2018-03-25T02:32:05.059Z,91.23
2018-03-25T02:33:11.324Z,91.20
2018-03-25T02:34:17.497Z,91.19
2018-03-25T02:35:23.657Z,91.29
2018-03-25T02:36:29.871Z,91.20
2018-03-25T02:37:36.094Z,91.28
2018-03-25T02:38:42.320Z,91.12
2018-03-25T02:39:48.499Z,91.17
2018-03-25T02:40:54.655Z,91.19
2018-03-25T02:42:00.799Z,91.36
2018-03-25T02:43:06.739Z,91.73
2018-03-25T02:44:12.897Z,91.95
2018-03-25T02:45:19.127Z,91.72
2018-03-25T02:46:25.329Z,91.59
2018-03-25T02:47:31.479Z,91.47
2018-03-25T02:48:37.770Z,91.21
2018-03-25T02:49:43.946Z,91.12
2018-03-25T02:50:50.089Z,91.23
2018-03-25T02:51:56.279Z,91.06
2018-03-25T02:53:08.199Z,90.92
2018-03-25T02:54:15.067Z,90.68
2018-03-25T02:55:26.314Z,90.66
2018-03-25T02:56:32.506Z,90.86
2018-03-25T02:57:39.960Z,90.74
2018-03-25T02:58:46.177Z,90.83
2018-03-25T02:59:52.348Z,90.88
2018-03-25T03:00:58.593Z,91.13
2018-03-25T03:02:04.449Z,91.13
2018-03-25T03:03:10.733Z,91.30
2018-03-25T03:04:16.864Z,91.64
2018-03-25T03:05:23.072Z,91.83
2018-03-25T03:06:29.236Z,92.10
2018-03-25T03:07:35.659Z,92.08
2018-03-25T03:08:41.833Z,91.64
2018-03-25T03:09:48.020Z,91.04
2018-03-25T03:10:54.178Z,90.67
2018-03-25T03:12:00.345Z,90.31
2018-03-25T03:13:06.651Z,90.80
2018-03-25T03:14:22.247Z,91.10
2018-03-25T03:15:32.639Z,91.07
2018-03-25T03:16:38.837Z,91.13
2018-03-25T03:17:44.767Z,91.48
2018-03-25T03:18:50.966Z,91.46
2018-03-25T03:19:57.133Z,91.69
2018-03-25T03:21:03.318Z,91.81
2018-03-25T03:22:09.494Z,91.62
2018-03-25T03:23:15.724Z,91.65
2018-03-25T03:24:27.548Z,92.02
2018-03-25T03:25:33.765Z,92.20
2018-03-25T03:26:39.984Z,92.15
2018-03-25T03:27:46.273Z,91.95
2018-03-25T03:28:53.730Z,91.96
2018-03-25T03:30:00.765Z,91.70
2018-03-25T03:31:07.841Z,91.41
2018-03-25T03:32:14.024Z,91.56
2018-03-25T03:33:20.243Z,91.45
2018-03-25T03:34:26.595Z,91.44
2018-03-25T03:35:32.914Z,91.81
2018-03-25T03:36:39.361Z,91.39
2018-03-25T03:37:45.565Z,91.30
2018-03-25T03:38:51.779Z,90.90
2018-03-25T03:39:57.914Z,90.81
2018-03-25T03:41:03.728Z,91.20
2018-03-25T03:42:09.914Z,91.43
2018-03-25T03:43:16.126Z,91.63
2018-03-25T03:44:24.274Z,91.61
2018-03-25T03:45:30.611Z,91.53
2018-03-25T03:46:36.838Z,91.54
2018-03-25T03:47:42.997Z,91.54
2018-03-25T03:48:54.400Z,91.24
2018-03-25T03:50:00.589Z,91.15
2018-03-25T03:51:07.337Z,91.03
2018-03-25T03:52:13.497Z,91.39
2018-03-25T03:53:19.640Z,91.46
2018-03-25T03:54:25.544Z,91.43
2018-03-25T03:55:32.085Z,91.63
2018-03-25T03:56:38.749Z,91.46
2018-03-25T03:57:44.930Z,91.38
2018-03-25T03:58:54.293Z,91.75
2018-03-25T04:01:14.313Z,91.79
2018-03-25T04:02:20.584Z,91.68
2018-03-25T04:03:26.882Z,91.56
2018-03-25T04:04:33.117Z,91.29
2018-03-25T04:05:39.287Z,91.13
2018-03-25T04:06:45.467Z,91.09
2018-03-25T04:07:51.642Z,91.06
2018-03-25T04:08:57.872Z,91.04
2018-03-25T04:10:08.788Z,91.07
2018-03-25T04:11:14.970Z,91.27
2018-03-25T04:12:21.298Z,91.39
2018-03-25T04:13:27.595Z,91.18
2018-03-25T04:14:33.780Z,91.51
2018-03-25T04:15:39.932Z,91.49
2018-03-25T04:16:47.057Z,91.69
2018-03-25T04:17:53.240Z,92.04
2018-03-25T04:18:59.516Z,91.99
2018-03-25T04:20:05.077Z,91.95
2018-03-25T04:21:11.246Z,91.61
2018-03-25T04:22:17.064Z,91.65
2018-03-25T04:23:23.246Z,91.64
2018-03-25T04:24:29.499Z,91.51
2018-03-25T04:25:42.585Z,91.47
2018-03-25T04:26:49.049Z,91.30
2018-03-25T04:27:54.861Z,91.01
2018-03-25T04:29:02.919Z,90.70
2018-03-25T04:30:09.356Z,90.64
2018-03-25T04:31:15.577Z,90.88
2018-03-25T04:32:21.773Z,91.08
2018-03-25T04:33:28.108Z,90.84
2018-03-25T04:34:37.150Z,90.83
2018-03-25T04:35:43.352Z,90.85
2018-03-25T04:36:49.619Z,90.81
2018-03-25T04:37:55.831Z,90.87
2018-03-25T04:39:04.330Z,90.72
2018-03-25T04:40:10.646Z,90.80
2018-03-25T04:41:17.193Z,90.91
2018-03-25T04:42:23.383Z,90.51
2018-03-25T04:43:32.493Z,90.27
2018-03-25T04:44:38.668Z,90.11
2018-03-25T04:45:44.520Z,89.69
2018-03-25T04:46:50.914Z,89.52
2018-03-25T04:47:57.143Z,89.67
2018-03-25T04:49:03.300Z,89.86
2018-03-25T04:50:13.515Z,90.24
2018-03-25T04:51:21.661Z,90.31
2018-03-25T04:52:28.245Z,90.45
2018-03-25T04:53:34.416Z,90.73
2018-03-25T04:54:40.617Z,90.78
2018-03-25T04:55:47.727Z,90.70
2018-03-25T04:56:54.014Z,90.86
2018-03-25T04:58:04.079Z,90.62
2018-03-25T04:59:10.399Z,90.38
2018-03-25T05:00:16.638Z,90.92
2018-03-25T05:01:22.866Z,90.79
2018-03-25T05:02:29.489Z,90.91
2018-03-25T05:03:35.656Z,90.88
2018-03-25T05:04:41.818Z,90.68
2018-03-25T05:05:47.963Z,90.26
2018-03-25T05:06:53.845Z,89.85
2018-03-25T05:08:00.070Z,90.01
2018-03-25T05:09:11.237Z,90.33
2018-03-25T05:10:17.544Z,90.78
2018-03-25T05:11:24.138Z,90.93
2018-03-25T05:12:30.435Z,90.87
2018-03-25T05:13:36.575Z,90.64
2018-03-25T05:14:42.785Z,90.19
2018-03-25T05:15:49.043Z,90.30
2018-03-25T05:16:55.278Z,90.61
2018-03-25T05:18:01.644Z,91.17
2018-03-25T05:19:09.247Z,91.19
2018-03-25T05:20:15.468Z,91.19
2018-03-25T05:21:21.633Z,91.10
2018-03-25T05:22:28.041Z,90.91
2018-03-25T05:23:34.272Z,91.17
2018-03-25T05:24:46.706Z,91.16
2018-03-25T05:25:54.848Z,90.87
2018-03-25T05:27:02.029Z,90.91
2018-03-25T05:28:08.185Z,91.10
2018-03-25T05:29:14.377Z,91.02
2018-03-25T05:30:20.867Z,90.88
2018-03-25T05:31:36.326Z,90.69
2018-03-25T05:32:42.438Z,90.53
2018-03-25T05:33:48.610Z,90.56
2018-03-25T05:34:54.892Z,90.72
2018-03-25T05:36:01.037Z,90.45
2018-03-25T05:37:07.206Z,90.16
2018-03-25T05:38:19.698Z,89.72
2018-03-25T05:39:30.922Z,89.57
2018-03-25T05:40:38.916Z,89.56
2018-03-25T05:41:45.165Z,89.40
2018-03-25T05:42:51.346Z,89.29
2018-03-25T05:43:57.540Z,89.08
2018-03-25T05:45:07.954Z,88.97
2018-03-25T05:46:14.104Z,89.09
2018-03-25T05:47:20.351Z,89.10
2018-03-25T05:48:26.540Z,89.25
2018-03-25T05:49:32.779Z,89.59
2018-03-25T05:50:38.953Z,89.33
2018-03-25T05:51:52.098Z,88.73
2018-03-25T05:53:03.361Z,88.48
2018-03-25T05:54:12.284Z,88.15
2018-03-25T05:55:18.594Z,87.89
2018-03-25T05:56:24.846Z,87.84
2018-03-25T05:57:31.017Z,88.16
2018-03-25T05:58:38.077Z,88.43
2018-03-25T05:59:43.991Z,88.72
2018-03-25T06:00:50.165Z,88.85
2018-03-25T06:02:02.236Z,89.23
2018-03-25T06:03:08.392Z,89.11
2018-03-25T06:04:14.599Z,88.93
2018-03-25T06:05:23.757Z,88.99
2018-03-25T06:06:35.372Z,88.86
2018-03-25T06:07:41.562Z,88.93
2018-03-25T06:08:47.753Z,88.90
2018-03-25T06:09:53.871Z,89.00
2018-03-25T06:11:00.025Z,88.63
2018-03-25T06:12:06.212Z,88.96
2018-03-25T06:13:18.410Z,88.61
2018-03-25T06:14:24.537Z,88.64
2018-03-25T06:15:30.841Z,88.27
2018-03-25T06:16:36.979Z,88.57
2018-03-25T06:17:43.343Z,88.72
2018-03-25T06:18:50.285Z,88.50
2018-03-25T06:19:56.458Z,88.39
2018-03-25T06:21:06.592Z,88.56
2018-03-25T06:22:18.030Z,88.36
2018-03-25T06:23:24.293Z,88.37
2018-03-25T06:24:30.777Z,88.29
2018-03-25T06:25:37.014Z,88.82
2018-03-25T06:26:43.172Z,88.90
2018-03-25T06:27:49.720Z,88.86
2018-03-25T06:28:55.967Z,88.58
2018-03-25T06:30:02.300Z,88.62
2018-03-25T06:31:08.442Z,88.40
2018-03-25T06:32:14.638Z,87.94
2018-03-25T06:33:23.874Z,87.46
2018-03-25T06:34:34.887Z,87.13
2018-03-25T06:35:41.455Z,86.80
2018-03-25T06:36:51.179Z,86.81
2018-03-25T06:37:57.401Z,86.52
2018-03-25T06:39:03.285Z,85.86
2018-03-25T06:40:15.543Z,85.41
2018-03-25T06:41:21.713Z,85.43
2018-03-25T06:42:27.922Z,85.23
2018-03-25T06:43:34.161Z,85.09
2018-03-25T06:44:44.451Z,85.06
2018-03-25T06:45:58.459Z,84.35
2018-03-25T06:47:04.667Z,84.24
2018-03-25T06:48:13.788Z,84.94
2018-03-25T06:49:19.973Z,86.16
2018-03-25T06:50:27.527Z,86.42
2018-03-25T06:51:34.993Z,86.18
2018-03-25T06:52:42.025Z,86.18
2018-03-25T06:53:48.519Z,86.07
2018-03-25T06:54:54.799Z,86.25
2018-03-25T06:56:02.049Z,85.82
2018-03-25T06:57:17.266Z,85.39
2018-03-25T06:58:28.335Z,85.21
2018-03-25T06:59:35.156Z,84.37
2018-03-25T07:00:41.481Z,85.37
2018-03-25T07:01:47.882Z,85.12
2018-03-25T07:02:54.562Z,85.41
2018-03-25T07:04:04.400Z,85.55
2018-03-25T07:05:11.607Z,85.27
2018-03-25T07:06:17.915Z,85.42
2018-03-25T07:07:24.509Z,84.13
2018-03-25T07:08:30.841Z,83.24
2018-03-25T07:09:37.041Z,83.81
2018-03-25T07:10:43.233Z,83.81
2018-03-25T07:11:49.181Z,83.20
2018-03-25T07:12:55.367Z,82.20
2018-03-25T07:14:02.010Z,81.68
2018-03-25T07:15:12.927Z,81.09
2018-03-25T07:16:19.862Z,81.17
2018-03-25T07:17:26.368Z,82.91
2018-03-25T07:18:33.207Z,82.69
2018-03-25T07:19:39.575Z,84.30
2018-03-25T07:20:47.389Z,84.10
2018-03-25T07:21:54.355Z,83.62
2018-03-25T07:23:01.695Z,82.48
2018-03-25T07:24:08.922Z,81.99
2018-03-25T07:25:15.537Z,83.27
2018-03-25T07:26:22.383Z,82.50
2018-03-25T07:27:29.416Z,81.74
2018-03-25T07:28:36.122Z,81.07
2018-03-25T07:29:42.879Z,81.59
2018-03-25T07:30:56.415Z,82.23
2018-03-25T07:32:03.799Z,81.38
2018-03-25T07:33:10.782Z,81.68
2018-03-25T07:34:17.626Z,81.14
2018-03-25T07:35:24.678Z,80.28
2018-03-25T07:36:31.637Z,80.01
2018-03-25T07:37:39.179Z,80.29
2018-03-25T07:38:46.017Z,81.40
2018-03-25T07:39:57.689Z,82.29
2018-03-25T07:41:09.891Z,83.48
2018-03-25T07:42:17.436Z,83.18
2018-03-25T07:43:23.876Z,83.29
2018-03-25T07:44:32.520Z,83.35
2018-03-25T07:45:38.771Z,83.41
2018-03-25T07:46:45.071Z,82.75
2018-03-25T07:47:51.373Z,83.24
2018-03-25T07:48:59.469Z,82.50
2018-03-25T07:50:06.998Z,81.50
2018-03-25T07:51:13.029Z,80.88
2018-03-25T07:52:19.286Z,82.00
2018-03-25T07:53:25.547Z,81.79
2018-03-25T07:54:31.719Z,82.19
2018-03-25T07:55:39.944Z,82.21
2018-03-25T07:56:46.756Z,82.23
2018-03-25T07:57:53.721Z,82.94
2018-03-25T07:58:59.972Z,83.05
2018-03-25T08:00:05.867Z,82.09
2018-03-25T08:01:11.807Z,82.52
2018-03-25T08:02:18.009Z,81.57
2018-03-25T08:03:24.307Z,80.90
2018-03-25T08:04:30.469Z,82.64
2018-03-25T08:05:36.870Z,82.52
2018-03-25T08:06:43.079Z,82.29
2018-03-25T08:07:55.001Z,81.83
2018-03-25T08:09:02.332Z,81.23
2018-03-25T08:10:08.688Z,80.82
2018-03-25T08:11:14.858Z,79.78
2018-03-25T08:12:21.037Z,79.50
2018-03-25T08:13:28.335Z,78.03
2018-03-25T08:14:35.849Z,78.16
2018-03-25T08:15:42.056Z,77.65
2018-03-25T08:16:48.729Z,76.68
2018-03-25T08:17:54.981Z,75.67
2018-03-25T08:19:01.800Z,75.66
2018-03-25T08:20:14.044Z,75.95
2018-03-25T08:21:20.354Z,76.63
2018-03-25T08:22:26.583Z,75.78
2018-03-25T08:23:32.825Z,75.53
2018-03-25T08:24:39.047Z,75.30
2018-03-25T08:25:55.257Z,75.15
2018-03-25T08:27:01.629Z,75.09
2018-03-25T08:28:07.944Z,76.15
2018-03-25T08:29:14.934Z,76.05
2018-03-25T08:30:21.380Z,75.68
2018-03-25T08:31:27.723Z,74.65
2018-03-25T08:32:33.985Z,74.01
2018-03-25T08:33:45.462Z,74.97
2018-03-25T08:34:51.908Z,75.17
2018-03-25T08:36:01.206Z,74.87
2018-03-25T08:37:21.965Z,74.34
2018-03-25T08:38:28.348Z,73.56
2018-03-25T08:39:39.571Z,73.23
2018-03-25T08:40:45.942Z,73.14
2018-03-25T08:41:52.232Z,72.98
2018-03-25T08:42:58.521Z,72.55
2018-03-25T08:44:04.747Z,72.82
2018-03-25T08:45:10.975Z,73.05
2018-03-25T08:46:17.251Z,72.56
2018-03-25T08:47:28.702Z,72.23
2018-03-25T08:48:35.012Z,72.14
2018-03-25T08:49:47.298Z,71.76
2018-03-25T08:50:55.430Z,71.52
2018-03-25T08:52:01.714Z,71.16
2018-03-25T08:53:07.931Z,70.94
2018-03-25T08:54:18.857Z,70.80
2018-03-25T08:55:25.152Z,70.22
2018-03-25T08:56:31.752Z,69.67
2018-03-25T08:57:37.984Z,70.54
2018-03-25T08:58:44.201Z,70.04
2018-03-25T08:59:50.222Z,70.95
2018-03-25T09:00:56.428Z,70.91
2018-03-25T09:02:02.716Z,70.48
2018-03-25T09:03:09.041Z,70.16
2018-03-25T09:04:15.338Z,70.74
2018-03-25T09:05:21.528Z,70.29
2018-03-25T09:06:27.751Z,70.40
2018-03-25T09:07:33.998Z,70.40
2018-03-25T09:08:40.319Z,69.55
2018-03-25T09:09:48.785Z,68.55
2018-03-25T09:10:55.033Z,69.00
2018-03-25T09:12:01.267Z,69.33
2018-03-25T09:13:07.207Z,69.16
2018-03-25T09:14:13.391Z,68.54
2018-03-25T09:15:19.823Z,69.57
2018-03-25T09:16:26.207Z,69.00
2018-03-25T09:17:32.617Z,68.08
2018-03-25T09:18:38.844Z,67.87
2018-03-25T09:19:44.926Z,68.68
2018-03-25T09:20:52.011Z,68.32
2018-03-25T09:21:58.306Z,68.18
2018-03-25T09:23:11.765Z,67.99
2018-03-25T09:24:21.038Z,67.47
2018-03-25T09:25:27.870Z,67.31
2018-03-25T09:26:33.875Z,67.33
2018-03-25T09:27:40.214Z,68.04
2018-03-25T09:28:46.513Z,68.06
2018-03-25T09:30:07.882Z,67.54
2018-03-25T09:31:14.818Z,67.44
2018-03-25T09:32:24.660Z,66.99
2018-03-25T09:33:31.171Z,66.44
2018-03-25T09:34:43.674Z,66.30
2018-03-25T09:35:49.973Z,65.91
2018-03-25T09:36:56.245Z,65.81
2018-03-25T09:38:07.534Z,65.79
2018-03-25T09:39:13.795Z,65.41
2018-03-25T09:40:20.092Z,65.26
2018-03-25T09:41:26.318Z,65.04
2018-03-25T09:42:33.444Z,65.21
2018-03-25T09:43:39.701Z,65.62
2018-03-25T09:44:45.928Z,67.16
2018-03-25T09:45:52.271Z,66.90
2018-03-25T09:47:00.671Z,66.39
2018-03-25T09:48:06.970Z,65.63
2018-03-25T09:49:13.382Z,65.58
2018-03-25T09:50:20.980Z,65.58
2018-03-25T09:51:32.340Z,64.99
2018-03-25T09:52:40.785Z,64.44
2018-03-25T09:53:47.219Z,63.44
2018-03-25T09:54:53.431Z,62.77
2018-03-25T09:55:59.787Z,62.16
2018-03-25T09:57:06.032Z,63.65
2018-03-25T09:58:12.270Z,63.26
2018-03-25T09:59:18.534Z,63.21
2018-03-25T10:00:38.095Z,63.23
2018-03-25T10:01:49.833Z,62.56
2018-03-25T10:02:59.755Z,62.57
2018-03-25T10:04:06.078Z,62.52
2018-03-25T10:05:15.156Z,62.23
2018-03-25T10:06:21.200Z,62.21
2018-03-25T10:07:30.466Z,62.33
2018-03-25T10:08:36.814Z,62.63
2018-03-25T10:09:43.078Z,62.04
2018-03-25T10:10:49.160Z,62.31
2018-03-25T10:12:00.418Z,62.68
2018-03-25T10:13:07.445Z,62.92
2018-03-25T10:14:13.327Z,63.86
2018-03-25T10:15:19.638Z,64.12
2018-03-25T10:16:25.921Z,64.05
2018-03-25T10:17:32.489Z,63.16
2018-03-25T10:18:38.735Z,62.99
2018-03-25T10:19:47.865Z,62.00
2018-03-25T10:20:55.282Z,62.10
2018-03-25T10:22:03.005Z,62.63
2018-03-25T10:23:09.281Z,63.05
2018-03-25T10:24:15.569Z,63.12
2018-03-25T10:25:21.800Z,62.95
2018-03-25T10:26:28.076Z,62.45
2018-03-25T10:27:34.365Z,62.79
2018-03-25T10:28:40.580Z,64.12
2018-03-25T10:29:47.427Z,64.39
2018-03-25T10:30:53.703Z,64.87
2018-03-25T10:32:00.037Z,64.43
2018-03-25T10:33:06.315Z,64.05
2018-03-25T10:34:12.599Z,63.76
2018-03-25T10:35:18.918Z,62.65
2018-03-25T10:36:30.133Z,61.96
2018-03-25T10:37:36.474Z,62.50
2018-03-25T10:38:42.671Z,62.56
2018-03-25T10:39:48.866Z,63.26
2018-03-25T10:40:54.945Z,63.92
2018-03-25T10:42:02.026Z,63.55
2018-03-25T10:43:08.307Z,63.02
2018-03-25T10:44:14.533Z,62.32
2018-03-25T10:45:20.738Z,61.55
2018-03-25T10:46:27.075Z,61.03
2018-03-25T10:47:33.362Z,61.01
2018-03-25T10:48:39.572Z,61.08
2018-03-25T10:49:46.834Z,61.62
2018-03-25T10:50:53.342Z,62.07
2018-03-25T10:51:59.542Z,61.52
2018-03-25T10:53:05.906Z,61.41
2018-03-25T10:54:12.168Z,61.09
2018-03-25T10:55:18.534Z,60.94
2018-03-25T10:56:24.861Z,60.38
2018-03-25T10:57:39.914Z,60.18
2018-03-25T10:58:54.673Z,60.62
2018-03-25T11:00:00.894Z,60.69
2018-03-25T11:01:07.007Z,60.41
2018-03-25T11:02:14.238Z,60.44
2018-03-25T11:03:20.546Z,60.49
2018-03-25T11:04:26.486Z,60.37
2018-03-25T11:05:34.583Z,60.06
2018-03-25T11:06:41.056Z,60.51
2018-03-25T11:07:47.292Z,59.78
2018-03-25T11:08:53.527Z,59.88
2018-03-25T11:09:59.779Z,60.01
2018-03-25T11:11:06.089Z,59.95
2018-03-25T11:12:12.330Z,59.94
2018-03-25T11:13:19.419Z,59.36
2018-03-25T11:14:30.889Z,59.27
2018-03-25T11:15:37.113Z,59.94
2018-03-25T11:16:43.717Z,59.71
2018-03-25T11:17:49.999Z,59.67
2018-03-25T11:18:56.013Z,59.51
2018-03-25T11:20:06.757Z,59.94
2018-03-25T11:21:12.491Z,59.31
2018-03-25T11:22:18.548Z,59.68
2018-03-25T11:23:24.622Z,59.05
2018-03-25T11:24:31.547Z,58.00
2018-03-25T11:25:37.833Z,57.88
2018-03-25T11:26:44.086Z,57.64
2018-03-25T11:27:50.380Z,57.19
2018-03-25T11:28:56.647Z,57.05
2018-03-25T11:30:02.601Z,57.02
2018-03-25T11:31:08.928Z,56.98
2018-03-25T11:32:23.207Z,57.28
2018-03-25T11:33:31.330Z,57.26
2018-03-25T11:34:40.179Z,57.15
2018-03-25T11:35:46.408Z,56.81
2018-03-25T11:36:52.637Z,55.65
2018-03-25T11:38:00.199Z,55.79
2018-03-25T11:39:05.917Z,56.08
2018-03-25T11:40:17.210Z,55.89
2018-03-25T11:41:23.539Z,56.11
2018-03-25T11:42:29.817Z,55.95
2018-03-25T11:43:36.044Z,55.84
2018-03-25T11:44:42.430Z,55.94
2018-03-25T11:45:48.699Z,56.57
2018-03-25T11:47:01.704Z,56.66
2018-03-25T11:48:07.968Z,56.35
2018-03-25T11:49:15.894Z,56.70
2018-03-25T11:50:22.163Z,56.65
2018-03-25T11:51:28.396Z,56.58
2018-03-25T11:52:34.805Z,56.02
2018-03-25T11:53:41.070Z,56.74
2018-03-25T11:54:47.373Z,57.71
2018-03-25T11:56:02.907Z,57.62
2018-03-25T11:57:09.161Z,58.00
2018-03-25T11:58:17.641Z,56.74
2018-03-25T11:59:26.970Z,56.32
2018-03-25T12:00:33.637Z,56.23
2018-03-25T12:01:39.831Z,56.66
2018-03-25T12:02:46.163Z,56.29
2018-03-25T12:03:54.304Z,55.67
2018-03-25T12:05:00.802Z,55.24
2018-03-25T12:06:07.104Z,55.57
2018-03-25T12:07:14.198Z,54.85
2018-03-25T12:08:20.413Z,55.75
2018-03-25T12:09:26.692Z,56.47
2018-03-25T12:10:33.384Z,57.50
2018-03-25T12:11:39.757Z,57.50
2018-03-25T12:12:47.046Z,57.16
2018-03-25T12:13:53.323Z,57.48
2018-03-25T12:14:59.573Z,57.23
2018-03-25T12:16:06.786Z,56.84
2018-03-25T12:17:13.065Z,56.42
2018-03-25T12:18:19.618Z,55.89
2018-03-25T12:19:31.472Z,56.20
2018-03-25T12:20:38.903Z,55.93
2018-03-25T12:21:45.148Z,55.24
2018-03-25T12:22:51.369Z,55.58
2018-03-25T12:23:57.598Z,55.80
2018-03-25T12:25:03.656Z,56.11
2018-03-25T12:26:09.950Z,55.56
2018-03-25T12:27:16.224Z,56.01
2018-03-25T12:28:22.497Z,56.74
2018-03-25T12:29:28.801Z,56.02
2018-03-25T12:30:35.119Z,56.51
2018-03-25T12:31:41.422Z,56.19
2018-03-25T12:32:47.753Z,56.59
2018-03-25T12:33:54.041Z,55.93
2018-03-25T12:35:00.707Z,56.01
2018-03-25T12:36:06.581Z,56.45
2018-03-25T12:37:12.887Z,56.18
2018-03-25T12:38:19.177Z,56.02
2018-03-25T12:39:25.498Z,56.45
2018-03-25T12:40:31.785Z,56.34
2018-03-25T12:41:38.232Z,56.38
2018-03-25T12:42:44.549Z,56.78
2018-03-25T12:43:50.866Z,57.45
2018-03-25T12:44:57.124Z,57.44
2018-03-25T12:46:05.736Z,57.41
2018-03-25T12:47:11.951Z,57.60
2018-03-25T12:48:18.973Z,57.36
2018-03-25T12:49:25.340Z,57.30
2018-03-25T12:50:31.890Z,57.36
2018-03-25T12:51:38.207Z,56.68
2018-03-25T12:52:44.456Z,56.83
2018-03-25T12:53:55.786Z,57.13
2018-03-25T12:55:02.092Z,58.10
2018-03-25T12:56:08.533Z,58.26
2018-03-25T12:57:16.867Z,58.92
2018-03-25T12:58:23.132Z,58.43
2018-03-25T12:59:29.346Z,58.57
2018-03-25T13:00:35.879Z,58.83
2018-03-25T13:01:44.028Z,58.10
2018-03-25T13:02:50.847Z,59.17
2018-03-25T13:03:57.164Z,59.35
2018-03-25T13:05:03.530Z,59.49
2018-03-25T13:06:09.890Z,59.67
2018-03-25T13:07:15.754Z,59.40
2018-03-25T13:08:23.686Z,58.33
2018-03-25T13:09:35.104Z,58.39
2018-03-25T13:10:41.369Z,58.09
2018-03-25T13:11:47.672Z,58.02
2018-03-25T13:12:54.079Z,57.15
2018-03-25T13:14:00.777Z,55.91
2018-03-25T13:15:09.717Z,56.43
2018-03-25T13:16:16.530Z,56.33
2018-03-25T13:17:23.604Z,57.04
2018-03-25T13:18:30.213Z,57.22
2018-03-25T13:19:37.031Z,57.22
2018-03-25T13:20:44.432Z,56.41
2018-03-25T13:21:51.129Z,57.35
2018-03-25T13:22:59.192Z,56.47
2018-03-25T13:24:05.620Z,57.03
2018-03-25T13:25:13.242Z,56.65
2018-03-25T13:26:19.897Z,57.66
2018-03-25T13:27:26.684Z,57.05
2018-03-25T13:28:33.603Z,57.88
2018-03-25T13:29:40.046Z,58.64
2018-03-25T13:30:47.917Z,58.36
2018-03-25T13:31:54.341Z,58.68
2018-03-25T13:33:01.337Z,58.97
2018-03-25T13:34:07.902Z,59.06
2018-03-25T13:35:14.949Z,58.28
2018-03-25T13:36:26.498Z,57.59
2018-03-25T13:37:34.260Z,58.04
2018-03-25T13:38:41.147Z,58.08
2018-03-25T13:39:47.543Z,58.71
2018-03-25T13:40:54.057Z,58.29
2018-03-25T13:42:06.791Z,58.58
2018-03-25T13:43:13.503Z,58.38
2018-03-25T13:44:25.202Z,58.67
2018-03-25T13:45:31.888Z,58.66
2018-03-25T13:46:38.854Z,58.30
2018-03-25T13:47:45.269Z,57.46
2018-03-25T13:48:52.300Z,57.39
2018-03-25T13:49:58.922Z,57.15
2018-03-25T13:51:05.566Z,57.74
2018-03-25T13:52:17.040Z,58.45
2018-03-25T13:53:29.433Z,57.71
2018-03-25T13:54:36.716Z,58.29
2018-03-25T13:55:43.050Z,57.67
2018-03-25T13:56:49.785Z,58.08
2018-03-25T13:57:56.280Z,59.39
2018-03-25T13:59:02.599Z,59.54
2018-03-25T14:00:08.516Z,60.19
2018-03-25T14:01:14.840Z,59.50
2018-03-25T14:02:21.151Z,59.84
2018-03-25T14:03:27.842Z,59.99
2018-03-25T14:04:36.417Z,60.01
2018-03-25T14:05:44.921Z,60.50
2018-03-25T14:06:51.213Z,59.45
2018-03-25T14:07:57.500Z,59.66
2018-03-25T14:09:03.211Z,59.97
2018-03-25T14:10:10.367Z,60.75
2018-03-25T14:11:16.286Z,61.17
2018-03-25T14:12:22.557Z,60.81
2018-03-25T14:13:28.548Z,60.18
2018-03-25T14:14:34.795Z,60.30
2018-03-25T14:15:41.136Z,60.48
2018-03-25T14:16:47.358Z,60.04
2018-03-25T14:17:54.147Z,60.17
2018-03-25T14:19:01.318Z,60.47
2018-03-25T14:20:07.562Z,60.06
2018-03-25T14:21:14.036Z,60.59
2018-03-25T14:22:20.386Z,59.76
2018-03-25T14:23:26.685Z,60.23
2018-03-25T14:24:32.970Z,59.56
2018-03-25T14:25:39.521Z,59.17